createdAt,value
2023-02-12T00:00:44.995Z,15.70
2023-02-12T00:03:12.898Z,15.60
2023-02-12T00:05:41.744Z,15.40
2023-02-12T00:08:11.193Z,15.00
2023-02-12T00:10:41.765Z,15.13
2023-02-12T00:13:09.508Z,15.60
2023-02-12T00:15:41.075Z,15.18
2023-02-12T00:18:09.002Z,15.38
2023-02-12T00:20:37.983Z,15.65
2023-02-12T00:23:06.172Z,14.98
2023-02-12T00:25:33.972Z,14.73
2023-02-12T00:28:01.628Z,13.82
2023-02-12T00:30:29.797Z,14.25
2023-02-12T00:32:58.805Z,14.15
2023-02-12T00:35:26.406Z,13.23
2023-02-12T00:37:54.005Z,14.25
2023-02-12T00:40:21.749Z,14.60
2023-02-12T00:42:49.324Z,20.83
2023-02-12T00:45:17.080Z,15.60
2023-02-12T00:47:44.766Z,14.68
2023-02-12T00:50:13.773Z,14.18
2023-02-12T00:52:41.346Z,38.00
2023-02-12T00:55:09.173Z,22.90
2023-02-12T00:57:36.733Z,16.17
2023-02-12T01:00:05.063Z,14.85
2023-02-12T01:02:32.688Z,14.32
2023-02-12T01:05:00.445Z,17.48
2023-02-12T01:07:29.396Z,32.55
2023-02-12T01:09:57.003Z,14.43
2023-02-12T01:12:24.610Z,17.40
2023-02-12T01:14:52.406Z,48.60
2023-02-12T01:17:20.028Z,19.15
2023-02-12T01:19:47.622Z,18.13
2023-02-12T01:22:15.441Z,21.83
2023-02-12T01:24:44.337Z,19.58
2023-02-12T01:27:11.861Z,15.90
2023-02-12T01:29:39.793Z,15.52
2023-02-12T01:32:07.446Z,19.33
2023-02-12T01:34:35.140Z,16.57
2023-02-12T01:37:02.736Z,14.98
2023-02-12T01:39:30.334Z,13.98
2023-02-12T01:41:59.233Z,14.10
2023-02-12T01:44:31.260Z,14.00
2023-02-12T01:47:00.393Z,14.00
2023-02-12T01:49:32.789Z,14.00
2023-02-12T01:52:06.301Z,15.32
2023-02-12T01:54:35.953Z,13.88
2023-02-12T01:57:07.212Z,13.70
2023-02-12T01:59:37.396Z,13.95
2023-02-12T02:02:05.985Z,13.50
2023-02-12T02:04:41.225Z,13.75
2023-02-12T02:07:10.912Z,14.10
2023-02-12T02:09:40.257Z,13.05
2023-02-12T02:12:27.197Z,13.50
2023-02-12T02:14:58.977Z,13.17
2023-02-12T02:17:48.004Z,13.80
2023-02-12T02:20:51.387Z,13.17
2023-02-12T02:23:48.715Z,13.75
2023-02-12T02:26:43.430Z,13.05
2023-02-12T02:29:55.370Z,13.00
2023-02-12T02:32:27.850Z,13.57
2023-02-12T02:35:01.870Z,13.68
2023-02-12T02:37:34.029Z,13.38
2023-02-12T02:40:10.686Z,12.80
2023-02-12T02:42:43.079Z,13.93
2023-02-12T02:45:16.477Z,13.15
2023-02-12T02:47:49.839Z,13.07
2023-02-12T02:50:21.012Z,13.25
2023-02-12T02:52:54.266Z,12.73
2023-02-12T02:55:25.328Z,13.15
2023-02-12T02:57:57.412Z,13.68
2023-02-12T03:00:29.575Z,18.02
2023-02-12T03:03:03.232Z,20.07
2023-02-12T03:05:34.503Z,13.52
2023-02-12T03:08:09.671Z,13.93
2023-02-12T03:10:41.744Z,13.82
2023-02-12T03:13:13.239Z,13.52
2023-02-12T03:15:45.963Z,13.50
2023-02-12T03:18:20.698Z,14.13
2023-02-12T03:20:52.989Z,13.25
2023-02-12T03:23:26.481Z,13.55
2023-02-12T03:25:58.981Z,13.38
2023-02-12T03:28:30.834Z,13.40
2023-02-12T03:31:09.197Z,13.65
2023-02-12T03:33:50.917Z,14.30
2023-02-12T03:36:30.758Z,13.50
2023-02-12T03:39:07.147Z,14.02
2023-02-12T03:41:41.553Z,13.80
2023-02-12T03:44:17.488Z,13.45
2023-02-12T03:46:51.797Z,13.93
2023-02-12T03:49:25.564Z,13.80
2023-02-12T03:51:53.901Z,13.52
2023-02-12T03:54:23.050Z,14.00
2023-02-12T03:56:55.183Z,13.57
2023-02-12T03:59:25.141Z,13.60
2023-02-12T04:01:54.960Z,14.20
2023-02-12T04:04:25.015Z,14.30
2023-02-12T04:06:54.794Z,13.80
2023-02-12T04:09:24.191Z,13.88
2023-02-12T04:12:05.980Z,14.37
2023-02-12T04:14:42.180Z,14.43
2023-02-12T04:17:18.642Z,13.88
2023-02-12T04:19:55.865Z,14.80
2023-02-12T04:22:33.904Z,14.63
2023-02-12T04:25:10.856Z,15.10
2023-02-12T04:27:43.657Z,14.77
2023-02-12T04:30:19.037Z,15.00
2023-02-12T04:32:50.278Z,15.30
2023-02-12T04:35:23.798Z,15.63
2023-02-12T04:37:56.243Z,15.18
2023-02-12T04:40:24.490Z,14.67
2023-02-12T04:42:54.317Z,14.88
2023-02-12T04:45:25.166Z,15.48
2023-02-12T04:47:53.074Z,15.05
2023-02-12T04:50:22.450Z,15.40
2023-02-12T04:52:50.198Z,14.93
2023-02-12T04:55:17.970Z,15.30
2023-02-12T04:57:45.755Z,15.40
2023-02-12T05:00:15.809Z,15.65
2023-02-12T05:02:43.460Z,15.50
2023-02-12T05:05:11.141Z,15.10
2023-02-12T05:07:40.215Z,15.85
2023-02-12T05:10:09.611Z,15.48
2023-02-12T05:12:37.168Z,15.02
2023-02-12T05:15:05.460Z,15.70
2023-02-12T05:17:33.225Z,15.63
2023-02-12T05:20:00.810Z,15.50
2023-02-12T05:22:28.483Z,15.85
2023-02-12T05:24:57.375Z,15.90
2023-02-12T05:27:24.914Z,16.45
2023-02-12T05:29:52.490Z,16.00
2023-02-12T05:32:20.113Z,16.25
2023-02-12T05:34:47.819Z,16.48
2023-02-12T05:37:15.619Z,16.52
2023-02-12T05:39:43.226Z,16.70
2023-02-12T05:42:12.206Z,17.27
2023-02-12T05:44:39.857Z,16.47
2023-02-12T05:47:07.368Z,16.90
2023-02-12T05:49:34.942Z,16.02
2023-02-12T05:52:02.491Z,16.27
2023-02-12T05:54:30.026Z,16.52
2023-02-12T05:56:57.555Z,16.15
2023-02-12T05:59:26.476Z,16.65
2023-02-12T06:01:54.418Z,16.97
2023-02-12T06:04:23.975Z,17.00
2023-02-12T06:06:52.311Z,16.67
2023-02-12T06:09:20.210Z,16.80
2023-02-12T06:11:47.895Z,16.53
2023-02-12T06:14:17.229Z,16.77
2023-02-12T06:16:48.321Z,16.35
2023-02-12T06:19:16.256Z,16.33
2023-02-12T06:21:43.990Z,16.83
2023-02-12T06:24:13.598Z,16.70
2023-02-12T06:26:41.396Z,16.48
2023-02-12T06:29:08.984Z,16.02
2023-02-12T06:31:38.258Z,15.80
2023-02-12T06:34:17.957Z,15.93
2023-02-12T06:36:47.021Z,16.52
2023-02-12T06:39:17.307Z,16.58
2023-02-12T06:41:45.459Z,16.15
2023-02-12T06:44:14.012Z,16.00
2023-02-12T06:46:41.793Z,16.52
2023-02-12T06:49:14.158Z,16.43
2023-02-12T06:51:42.370Z,17.35
2023-02-12T06:54:14.736Z,16.38
2023-02-12T06:56:42.268Z,16.23
2023-02-12T06:59:14.043Z,16.08
2023-02-12T07:01:41.909Z,16.33
2023-02-12T07:04:12.357Z,16.00
2023-02-12T07:06:40.167Z,16.45
2023-02-12T07:09:07.768Z,15.90
2023-02-12T07:11:38.343Z,16.73
2023-02-12T07:14:06.499Z,16.13
2023-02-12T07:16:34.193Z,16.13
2023-02-12T07:19:01.916Z,16.10
2023-02-12T07:21:31.948Z,16.30
2023-02-12T07:23:59.544Z,16.30
2023-02-12T07:26:27.092Z,15.93
2023-02-12T07:28:54.637Z,16.00
2023-02-12T07:31:24.349Z,16.33
2023-02-12T07:33:55.224Z,16.40
2023-02-12T07:36:23.172Z,15.88
2023-02-12T07:38:52.143Z,15.30
2023-02-12T07:41:21.394Z,16.90
2023-02-12T07:43:50.616Z,16.60
2023-02-12T07:46:21.686Z,17.20
2023-02-12T07:48:49.686Z,16.88
2023-02-12T07:51:19.171Z,15.65
2023-02-12T07:53:46.924Z,16.77
2023-02-12T07:56:18.131Z,16.67
2023-02-12T07:58:47.168Z,16.17
2023-02-12T08:01:18.205Z,17.90
2023-02-12T08:03:47.023Z,16.90
2023-02-12T08:06:16.732Z,17.40
2023-02-12T08:08:44.774Z,18.52
2023-02-12T08:11:14.249Z,19.20
2023-02-12T08:13:43.585Z,17.80
2023-02-12T08:16:13.273Z,17.70
2023-02-12T08:18:40.933Z,18.35
2023-02-12T08:21:09.859Z,18.85
2023-02-12T08:23:38.130Z,18.85
2023-02-12T08:26:11.437Z,20.88
2023-02-12T08:28:41.000Z,21.60
2023-02-12T08:31:12.195Z,22.15
2023-02-12T08:33:39.801Z,22.33
2023-02-12T08:36:10.397Z,23.77
2023-02-12T08:38:38.890Z,23.75
2023-02-12T08:41:07.879Z,23.92
2023-02-12T08:43:36.008Z,24.63
2023-02-12T08:46:05.336Z,26.02
2023-02-12T08:48:34.464Z,28.25
2023-02-12T08:51:06.994Z,32.08
2023-02-12T08:53:34.953Z,30.03
2023-02-12T08:56:02.622Z,31.73
2023-02-12T08:58:30.310Z,31.23
2023-02-12T09:00:57.976Z,28.85
2023-02-12T09:03:25.971Z,27.00
2023-02-12T09:05:55.257Z,26.27
2023-02-12T09:08:23.028Z,24.77
2023-02-12T09:10:50.578Z,25.50
2023-02-12T09:13:18.323Z,23.98
2023-02-12T09:15:46.316Z,26.05
2023-02-12T09:18:15.886Z,28.02
2023-02-12T09:20:45.519Z,26.55
2023-02-12T09:23:15.492Z,27.73
2023-02-12T09:25:44.574Z,27.65
2023-02-12T09:28:13.578Z,28.20
2023-02-12T09:30:42.081Z,29.05
2023-02-12T09:33:12.292Z,30.52
2023-02-12T09:35:40.429Z,31.58
2023-02-12T09:38:09.291Z,31.15
2023-02-12T09:40:48.326Z,32.10
2023-02-12T09:43:19.634Z,34.10
2023-02-12T09:45:57.786Z,34.83
2023-02-12T09:48:55.431Z,35.55
2023-02-12T09:51:23.816Z,35.92
2023-02-12T09:54:00.553Z,35.83
2023-02-12T09:56:29.556Z,33.72
2023-02-12T09:59:00.528Z,33.13
2023-02-12T10:01:28.975Z,32.55
2023-02-12T10:03:57.540Z,32.97
2023-02-12T10:06:27.774Z,33.33
2023-02-12T10:09:02.208Z,33.65
2023-02-12T10:11:54.722Z,34.05
2023-02-12T10:14:58.696Z,33.67
2023-02-12T10:17:36.896Z,33.47
2023-02-12T10:20:32.728Z,34.00
2023-02-12T10:23:11.255Z,33.60
2023-02-12T10:25:48.640Z,33.08
2023-02-12T10:28:21.591Z,35.17
2023-02-12T10:30:53.908Z,36.47
2023-02-12T10:33:28.098Z,36.72
2023-02-12T10:36:00.275Z,39.80
2023-02-12T10:38:32.417Z,38.67
2023-02-12T10:41:01.854Z,37.30
2023-02-12T10:43:31.937Z,38.22
2023-02-12T10:45:59.582Z,39.05
2023-02-12T10:48:32.539Z,36.30
2023-02-12T10:51:13.923Z,35.73
2023-02-12T10:53:43.522Z,35.58
2023-02-12T10:56:17.674Z,36.25
2023-02-12T10:58:57.529Z,35.00
2023-02-12T11:01:28.069Z,39.53
2023-02-12T11:03:56.868Z,39.33
2023-02-12T11:06:27.681Z,37.20
2023-02-12T11:08:56.300Z,37.50
2023-02-12T11:11:26.445Z,34.13
2023-02-12T11:14:03.794Z,34.83
2023-02-12T11:16:34.052Z,33.80
2023-02-12T11:19:05.707Z,34.38
2023-02-12T11:21:34.022Z,35.33
2023-02-12T11:24:23.914Z,34.72
2023-02-12T11:26:51.480Z,34.85
2023-02-12T11:29:24.477Z,33.65
2023-02-12T11:32:03.702Z,34.97
2023-02-12T11:34:31.813Z,33.10
2023-02-12T11:36:59.995Z,36.05
2023-02-12T11:39:29.865Z,34.60
2023-02-12T11:42:00.420Z,35.25
2023-02-12T11:44:33.311Z,35.75
2023-02-12T11:47:08.708Z,32.83
2023-02-12T11:49:42.204Z,33.47
2023-02-12T11:52:21.524Z,33.20
2023-02-12T11:54:51.413Z,34.83
2023-02-12T11:57:38.641Z,33.90
2023-02-12T12:00:15.253Z,33.45
2023-02-12T12:02:47.847Z,32.58
2023-02-12T12:05:19.409Z,33.70
2023-02-12T12:07:57.142Z,33.25
2023-02-12T12:10:35.503Z,30.92
2023-02-12T12:13:06.644Z,31.52
2023-02-12T12:15:56.915Z,30.58
2023-02-12T12:18:48.949Z,30.37
2023-02-12T12:21:25.756Z,32.03
2023-02-12T12:23:58.069Z,32.50
2023-02-12T12:26:28.707Z,32.22
2023-02-12T12:29:02.852Z,28.60
2023-02-12T12:31:35.778Z,30.67
2023-02-12T12:34:08.656Z,27.10
2023-02-12T12:37:03.252Z,27.25
2023-02-12T12:39:37.960Z,26.53
2023-02-12T12:42:45.577Z,23.80
2023-02-12T12:45:30.384Z,21.70
2023-02-12T12:48:16.168Z,21.27
2023-02-12T12:51:01.381Z,20.20
2023-02-12T12:53:43.538Z,19.33
2023-02-12T12:56:35.155Z,18.40
2023-02-12T12:59:36.812Z,15.37
2023-02-12T13:02:38.204Z,15.85
2023-02-12T13:05:57.996Z,15.10
2023-02-12T13:08:53.178Z,13.73
2023-02-12T13:11:36.522Z,12.23
2023-02-12T13:14:15.729Z,10.88
2023-02-12T13:16:50.672Z,10.13
2023-02-12T13:19:33.755Z,9.63
2023-02-12T13:22:08.853Z,10.80
2023-02-12T13:24:43.559Z,11.02
2023-02-12T13:27:16.376Z,11.15
2023-02-12T13:29:47.581Z,10.70
2023-02-12T13:32:23.094Z,11.02
2023-02-12T13:34:54.456Z,11.60
2023-02-12T13:37:35.226Z,12.02
2023-02-12T13:40:05.791Z,12.50
2023-02-12T13:42:44.465Z,12.98
2023-02-12T13:45:28.080Z,12.80
2023-02-12T13:48:07.308Z,12.67
2023-02-12T13:50:42.939Z,13.05
2023-02-12T13:53:21.503Z,12.88
2023-02-12T13:56:06.691Z,12.32
2023-02-12T13:58:48.156Z,13.18
2023-02-12T14:01:37.590Z,13.45
2023-02-12T14:04:33.208Z,14.05
2023-02-12T14:07:05.027Z,14.10
2023-02-12T14:09:38.711Z,13.47
2023-02-12T14:12:08.315Z,13.60
2023-02-12T14:14:38.592Z,14.25
2023-02-12T14:17:53.852Z,12.98
2023-02-12T14:20:27.534Z,13.23
2023-02-12T14:23:20.112Z,14.38
2023-02-12T14:25:57.670Z,12.85
2023-02-12T14:28:30.911Z,12.95
2023-02-12T14:31:30.051Z,11.20
2023-02-12T14:34:31.000Z,12.10
2023-02-12T14:37:13.620Z,11.82
2023-02-12T14:39:41.255Z,13.48
2023-02-12T14:42:55.568Z,14.35
2023-02-12T14:45:34.952Z,13.73
2023-02-12T14:48:03.777Z,12.23
2023-02-12T14:50:39.445Z,11.68
2023-02-12T14:53:28.995Z,19.42
2023-02-12T14:55:58.264Z,13.90
2023-02-12T14:58:30.668Z,13.93
2023-02-12T15:01:01.211Z,13.68
2023-02-12T15:03:35.911Z,15.67
2023-02-12T15:06:08.684Z,15.35
2023-02-12T15:08:44.362Z,15.70
2023-02-12T15:11:25.965Z,16.23
2023-02-12T15:13:58.672Z,15.32
2023-02-12T15:16:35.503Z,15.15
2023-02-12T15:19:13.365Z,17.70
2023-02-12T15:21:41.951Z,14.98
2023-02-12T15:24:11.427Z,15.07
2023-02-12T15:26:42.684Z,14.70
2023-02-12T15:29:22.383Z,14.85
2023-02-12T15:31:55.993Z,15.43
2023-02-12T15:34:26.319Z,14.70
2023-02-12T15:36:56.200Z,15.80
2023-02-12T15:39:25.806Z,14.38
2023-02-12T15:41:53.439Z,14.80
2023-02-12T15:44:29.527Z,14.43
2023-02-12T15:47:03.998Z,15.25
2023-02-12T15:49:35.238Z,15.70
2023-02-12T15:52:06.036Z,16.15
2023-02-12T15:54:34.033Z,15.87
2023-02-12T15:57:02.852Z,15.93
2023-02-12T15:59:31.850Z,17.85
2023-02-12T16:02:03.257Z,17.10
2023-02-12T16:04:33.589Z,18.03
2023-02-12T16:07:02.430Z,17.45
2023-02-12T16:09:32.682Z,18.63
2023-02-12T16:12:03.197Z,18.60
2023-02-12T16:14:40.837Z,18.42
2023-02-12T16:17:22.105Z,19.83
2023-02-12T16:19:58.005Z,23.08
2023-02-12T16:22:29.657Z,26.98
2023-02-12T16:24:57.802Z,25.42
2023-02-12T16:27:28.343Z,22.63
2023-02-12T16:29:59.464Z,23.30
2023-02-12T16:32:38.326Z,23.77
2023-02-12T16:35:25.135Z,22.58
2023-02-12T16:37:56.319Z,23.05
2023-02-12T16:40:30.940Z,29.90
2023-02-12T16:43:04.176Z,24.58
2023-02-12T16:45:38.664Z,21.17
2023-02-12T16:48:17.212Z,19.35
2023-02-12T16:50:49.183Z,18.77
2023-02-12T16:53:34.343Z,18.30
2023-02-12T16:56:04.787Z,18.15
2023-02-12T16:58:32.565Z,20.13
2023-02-12T17:01:04.345Z,20.40
2023-02-12T17:03:32.497Z,20.90
2023-02-12T17:06:00.258Z,57.53
2023-02-12T17:08:27.827Z,24.55
2023-02-12T17:10:55.357Z,19.63
2023-02-12T17:13:22.956Z,24.42
2023-02-12T17:15:55.340Z,41.03
2023-02-12T17:18:25.180Z,35.33
2023-02-12T17:20:55.886Z,34.80
2023-02-12T17:23:24.613Z,32.83
2023-02-12T17:25:52.489Z,34.85
2023-02-12T17:28:20.878Z,38.53
2023-02-12T17:30:48.490Z,44.95
2023-02-12T17:33:17.067Z,34.92
2023-02-12T17:35:46.387Z,31.65
2023-02-12T17:38:14.146Z,30.70
2023-02-12T17:40:41.779Z,25.35
2023-02-12T17:43:09.559Z,27.20
2023-02-12T17:45:42.711Z,33.28
2023-02-12T17:48:10.523Z,29.02
2023-02-12T17:50:38.501Z,23.50
2023-02-12T17:53:07.963Z,24.90
2023-02-12T17:55:39.506Z,26.77
2023-02-12T17:58:08.199Z,28.77
2023-02-12T18:00:35.835Z,29.48
2023-02-12T18:03:03.439Z,32.97
2023-02-12T18:05:31.016Z,31.40
2023-02-12T18:07:58.653Z,37.83
2023-02-12T18:10:27.602Z,28.63
2023-02-12T18:12:55.230Z,34.65
2023-02-12T18:15:23.517Z,27.65
2023-02-12T18:17:51.190Z,25.77
2023-02-12T18:20:19.170Z,26.40
2023-02-12T18:22:47.295Z,27.60
2023-02-12T18:25:15.102Z,25.00
2023-02-12T18:27:44.254Z,24.13
2023-02-12T18:30:12.686Z,25.80
2023-02-12T18:32:40.273Z,27.17
2023-02-12T18:35:09.137Z,24.42
2023-02-12T18:37:36.965Z,27.27
2023-02-12T18:40:04.881Z,26.48
2023-02-12T18:42:33.266Z,25.38
2023-02-12T18:45:02.299Z,27.60
2023-02-12T18:47:29.932Z,25.88
2023-02-12T18:49:58.170Z,26.63
2023-02-12T18:52:26.148Z,24.35
2023-02-12T18:54:53.760Z,23.83
2023-02-12T18:57:21.513Z,26.63
2023-02-12T18:59:49.171Z,25.07
2023-02-12T19:02:18.390Z,24.10
2023-02-12T19:04:46.012Z,25.95
2023-02-12T19:07:13.654Z,23.58
2023-02-12T19:09:41.587Z,24.05
2023-02-12T19:12:09.234Z,23.38
2023-02-12T19:14:36.911Z,22.40
2023-02-12T19:17:04.702Z,20.92
2023-02-12T19:19:34.003Z,21.93
2023-02-12T19:22:01.736Z,23.10
2023-02-12T19:24:44.392Z,22.65
2023-02-12T19:27:13.744Z,23.77
2023-02-12T19:29:41.427Z,23.70
2023-02-12T19:32:09.221Z,31.30
2023-02-12T19:34:38.765Z,27.58
2023-02-12T19:37:08.255Z,26.48
2023-02-12T19:39:36.331Z,47.22
2023-02-12T19:42:04.055Z,26.08
2023-02-12T19:44:31.800Z,25.63
2023-02-12T19:46:59.523Z,30.42
2023-02-12T19:49:28.681Z,21.75
2023-02-12T19:51:57.779Z,30.40
2023-02-12T19:54:26.050Z,28.20
2023-02-12T19:56:55.182Z,29.67
2023-02-12T19:59:25.267Z,36.90
2023-02-12T20:01:53.093Z,42.05
2023-02-12T20:04:22.793Z,45.67
2023-02-12T20:06:50.833Z,24.83
2023-02-12T20:09:21.438Z,31.17
2023-02-12T20:11:50.099Z,24.10
2023-02-12T20:14:20.754Z,31.08
2023-02-12T20:16:48.399Z,34.17
2023-02-12T20:19:18.821Z,60.17
2023-02-12T20:21:48.904Z,30.80
2023-02-12T20:24:16.730Z,30.30
2023-02-12T20:26:45.875Z,24.60
2023-02-12T20:29:13.672Z,22.90
2023-02-12T20:31:41.441Z,33.67
2023-02-12T20:34:12.734Z,32.17
2023-02-12T20:36:43.197Z,22.08
2023-02-12T20:39:13.389Z,24.30
2023-02-12T20:41:42.280Z,25.10
2023-02-12T20:44:14.357Z,32.75
2023-02-12T20:46:42.579Z,26.25
2023-02-12T20:49:12.977Z,27.77
2023-02-12T20:51:41.010Z,27.13
2023-02-12T20:54:08.636Z,25.00
2023-02-12T20:56:38.645Z,37.53
2023-02-12T20:59:07.556Z,29.45
2023-02-12T21:01:38.568Z,27.83
2023-02-12T21:04:08.578Z,26.35
2023-02-12T21:06:36.663Z,25.27
2023-02-12T21:09:04.531Z,26.53
2023-02-12T21:11:32.195Z,25.90
2023-02-12T21:14:20.794Z,25.40
2023-02-12T21:16:49.659Z,26.35
2023-02-12T21:19:18.162Z,31.60
2023-02-12T21:21:46.046Z,31.75
2023-02-12T21:24:16.331Z,36.22
2023-02-12T21:26:44.361Z,30.45
2023-02-12T21:29:12.128Z,27.83
2023-02-12T21:31:42.038Z,29.50
2023-02-12T21:34:15.224Z,29.98
2023-02-12T21:36:44.996Z,31.47
2023-02-12T21:39:14.143Z,28.45
2023-02-12T21:41:43.942Z,28.88
2023-02-12T21:44:14.600Z,29.73
2023-02-12T21:46:42.907Z,30.38
2023-02-12T21:49:12.810Z,27.67
2023-02-12T21:51:42.301Z,32.88
2023-02-12T21:54:12.371Z,45.67
2023-02-12T21:56:41.437Z,41.58
2023-02-12T21:59:09.996Z,43.67
2023-02-12T22:01:42.276Z,40.28
2023-02-12T22:04:10.708Z,36.42
2023-02-12T22:06:42.624Z,41.10
2023-02-12T22:09:12.179Z,44.20
2023-02-12T22:11:41.381Z,41.90
2023-02-12T22:14:09.918Z,44.17
2023-02-12T22:16:38.887Z,46.90
2023-02-12T22:19:06.559Z,37.17
2023-02-12T22:21:37.217Z,34.30
2023-02-12T22:24:09.283Z,32.75
2023-02-12T22:26:37.442Z,30.65
2023-02-12T22:29:09.150Z,32.22
2023-02-12T22:31:39.173Z,38.80
2023-02-12T22:34:09.084Z,49.10
2023-02-12T22:36:38.529Z,45.05
2023-02-12T22:39:07.730Z,39.13
2023-02-12T22:41:35.905Z,33.40
2023-02-12T22:44:05.034Z,29.52
2023-02-12T22:46:33.156Z,30.20
2023-02-12T22:49:01.281Z,36.70
2023-02-12T22:51:30.976Z,35.78
2023-02-12T22:53:59.447Z,37.60
2023-02-12T22:56:28.470Z,35.55
2023-02-12T22:58:57.048Z,37.22
2023-02-12T23:01:25.071Z,38.85
2023-02-12T23:03:53.014Z,41.50
2023-02-12T23:06:23.156Z,45.20
2023-02-12T23:08:51.879Z,39.50
2023-02-12T23:11:19.921Z,43.40
2023-02-12T23:13:48.903Z,39.00
2023-02-12T23:16:16.563Z,31.63
2023-02-12T23:18:44.232Z,29.53
2023-02-12T23:21:12.111Z,30.63
2023-02-12T23:23:39.748Z,29.38
2023-02-12T23:26:07.661Z,27.33
2023-02-12T23:28:35.509Z,33.78
2023-02-12T23:31:04.619Z,54.72
2023-02-12T23:33:32.345Z,36.00
2023-02-12T23:36:00.216Z,32.40
2023-02-12T23:38:27.822Z,29.97
2023-02-12T23:40:55.643Z,31.55
2023-02-12T23:43:23.482Z,33.13
2023-02-12T23:45:51.036Z,34.80
2023-02-12T23:48:20.063Z,31.88
2023-02-12T23:50:49.800Z,32.47
2023-02-12T23:53:18.969Z,32.15
2023-02-12T23:55:46.823Z,31.20
2023-02-12T23:58:14.348Z,34.30
